Time;durP1;ratioP1;P1;durP2;ratioP2;P2;SDS_P1;SDS_P2;PMS_P1;PMS_P2;Temp;Humidity;BMP_temperature;BMP_pressure;BME280_temperature;BME280_humidity;BME280_pressure;Samples;Min_cycle;Max_cycle;Signal;HPM_P1;HPM_P2
2021/04/18 00:00:31;;;;;;;41.38;21.42;;;;;;;;;;5156391;27;20029;-62
2021/04/18 00:02:56;;;;;;;40.22;21.25;;;;;;;;;;5156440;27;20026;-61
2021/04/18 00:05:24;;;;;;;42.80;20.85;;;;;;;;;;5156337;27;20482;-61
2021/04/18 00:07:50;;;;;;;40.58;21.05;;;;;;;;;;5156232;27;20030;-61
2021/04/18 00:10:16;;;;;;;39.72;20.90;;;;;;;;;;5156274;27;20019;-61
2021/04/18 00:12:41;;;;;;;42.00;20.52;;;;;;;;;;5156310;27;20110;-61
2021/04/18 00:15:08;;;;;;;41.17;20.45;;;;;;;;;;5137737;27;20076;-61
2021/04/18 00:17:33;;;;;;;40.70;20.52;;;;;;;;;;5156088;27;20023;-61
2021/04/18 00:19:59;;;;;;;40.95;20.77;;;;;;;;;;5156113;27;20390;-61
2021/04/18 00:22:24;;;;;;;38.42;19.63;;;;;;;;;;5137392;27;20062;-61
2021/04/18 00:24:50;;;;;;;40.50;20.08;;;;;;;;;;5156021;27;20054;-61
2021/04/18 00:27:16;;;;;;;33.97;19.63;;;;;;;;;;5155897;27;20019;-61
2021/04/18 00:29:42;;;;;;;33.97;17.33;;;;;;;;;;5155681;27;20027;-61
2021/04/18 00:32:07;;;;;;;32.30;17.40;;;;;;;;;;5155865;27;20007;-62
2021/04/18 00:34:33;;;;;;;33.33;17.33;;;;;;;;;;5137196;27;20461;-61
2021/04/18 00:36:59;;;;;;;33.47;17.95;;;;;;;;;;5155789;27;20029;-61
2021/04/18 00:39:24;;;;;;;34.50;18.45;;;;;;;;;;5155624;27;20054;-61
2021/04/18 00:41:50;;;;;;;38.55;19.17;;;;;;;;;;5155501;27;20054;-62
2021/04/18 00:44:15;;;;;;;36.25;17.50;;;;;;;;;;5155577;27;20031;-61
2021/04/18 00:46:41;;;;;;;36.03;18.90;;;;;;;;;;5155711;27;20026;-61
2021/04/18 00:49:07;;;;;;;32.67;17.80;;;;;;;;;;5155507;27;20038;-61
2021/04/18 00:51:32;;;;;;;35.55;18.67;;;;;;;;;;5155357;27;20015;-58
2021/04/18 00:53:58;;;;;;;34.75;18.50;;;;;;;;;;5155809;27;20362;-58
2021/04/18 00:56:23;;;;;;;37.95;19.10;;;;;;;;;;5155574;27;20042;-58
2021/04/18 00:58:49;;;;;;;35.90;18.42;;;;;;;;;;5136832;27;20025;-58
2021/04/18 01:01:15;;;;;;;31.15;17.08;;;;;;;;;;5125711;27;20092;-58
2021/04/18 01:03:41;;;;;;;31.23;16.42;;;;;;;;;;5113087;28;20024;-58
2021/04/18 01:06:06;;;;;;;30.45;16.65;;;;;;;;;;5114078;28;20347;-58
2021/04/18 01:08:41;;;;;;;35.80;17.92;;;;;;;;;;5114116;28;20518;-57
2021/04/18 01:11:06;;;;;;;34.95;18.48;;;;;;;;;;5112625;28;20031;-58
2021/04/18 01:13:32;;;;;;;32.83;17.35;;;;;;;;;;5112705;28;20115;-58
2021/04/18 01:15:58;;;;;;;35.92;18.23;;;;;;;;;;5112832;28;20027;-57
2021/04/18 01:18:24;;;;;;;35.78;18.08;;;;;;;;;;5114242;28;20090;-58
2021/04/18 01:21:03;;;;;;;35.08;18.55;;;;;;;;;;5114068;28;20157;-58
2021/04/18 01:23:47;;;;;;;33.78;17.20;;;;;;;;;;5114256;28;20046;-58
2021/04/18 01:26:22;;;;;;;33.78;17.70;;;;;;;;;;5112630;28;20023;-58
2021/04/18 01:28:48;;;;;;;37.33;18.33;;;;;;;;;;5112497;28;20123;-58
2021/04/18 01:31:14;;;;;;;40.17;18.85;;;;;;;;;;5112531;28;20020;-58
2021/04/18 01:33:40;;;;;;;34.55;17.55;;;;;;;;;;5112571;28;20027;-58
2021/04/18 01:36:05;;;;;;;34.85;17.42;;;;;;;;;;5113710;28;20061;-58
2021/04/18 01:38:31;;;;;;;35.35;18.80;;;;;;;;;;5113708;28;20111;-58
2021/04/18 01:41:00;;;;;;;38.13;18.98;;;;;;;;;;5113810;28;20019;-58
2021/04/18 01:43:26;;;;;;;38.15;18.80;;;;;;;;;;5112528;28;20024;-58
2021/04/18 01:45:52;;;;;;;35.22;18.25;;;;;;;;;;5111969;28;20080;-58
2021/04/18 01:48:18;;;;;;;32.53;17.42;;;;;;;;;;5112865;28;20035;-58
2021/04/18 01:50:45;;;;;;;35.40;17.65;;;;;;;;;;5116356;28;20111;-58
2021/04/18 01:53:11;;;;;;;32.60;17.70;;;;;;;;;;5117747;28;20034;-58
2021/04/18 01:55:38;;;;;;;36.03;18.35;;;;;;;;;;5116460;28;20088;-58
2021/04/18 01:58:05;;;;;;;38.80;17.77;;;;;;;;;;5116438;28;20073;-61
2021/04/18 02:00:42;;;;;;;35.25;18.38;;;;;;;;;;5120791;27;20019;-61
2021/04/18 02:03:08;;;;;;;37.40;19.02;;;;;;;;;;5159022;27;20117;-61
2021/04/18 02:05:38;;;;;;;36.63;18.75;;;;;;;;;;5140169;27;20026;-61
2021/04/18 02:08:11;;;;;;;36.47;18.13;;;;;;;;;;5140135;27;20389;-61
2021/04/18 02:10:36;;;;;;;38.88;19.15;;;;;;;;;;5140041;27;20038;-61
2021/04/18 02:13:02;;;;;;;35.20;18.60;;;;;;;;;;5140117;27;20014;-61
2021/04/18 02:15:43;;;;;;;37.65;18.70;;;;;;;;;;5139956;27;20015;-61
2021/04/18 02:18:10;;;;;;;41.30;19.23;;;;;;;;;;5139862;27;20431;-61
2021/04/18 02:20:35;;;;;;;38.45;18.45;;;;;;;;;;5158451;27;20046;-60
2021/04/18 02:23:01;;;;;;;42.85;20.33;;;;;;;;;;5139866;27;20034;-61
2021/04/18 02:25:27;;;;;;;40.30;19.42;;;;;;;;;;5158443;27;20025;-61
2021/04/18 02:27:53;;;;;;;41.58;19.80;;;;;;;;;;5158222;27;20038;-61
2021/04/18 02:30:23;;;;;;;45.50;21.30;;;;;;;;;;5139366;27;20023;-61
2021/04/18 02:32:49;;;;;;;42.25;20.73;;;;;;;;;;5139584;27;20113;-61
2021/04/18 02:35:16;;;;;;;43.60;20.58;;;;;;;;;;5139784;27;20018;-61
2021/04/18 02:37:45;;;;;;;43.60;20.88;;;;;;;;;;5139773;27;20027;-61
2021/04/18 02:40:11;;;;;;;43.15;21.20;;;;;;;;;;5139517;27;20139;-62
2021/04/18 02:42:39;;;;;;;42.80;20.15;;;;;;;;;;5158082;27;20550;-61
2021/04/18 02:45:07;;;;;;;44.17;20.92;;;;;;;;;;5139539;27;20057;-61
2021/04/18 02:47:40;;;;;;;40.88;19.10;;;;;;;;;;5139542;27;20033;-61
2021/04/18 02:50:07;;;;;;;40.00;19.85;;;;;;;;;;5139028;27;20079;-61
2021/04/18 02:52:33;;;;;;;40.83;19.45;;;;;;;;;;5157750;27;20019;-61
2021/04/18 02:54:59;;;;;;;40.65;20.83;;;;;;;;;;5139156;27;20025;-61
2021/04/18 02:57:27;;;;;;;39.55;19.52;;;;;;;;;;5139126;27;20097;-61
2021/04/18 02:59:53;;;;;;;39.00;18.75;;;;;;;;;;5139149;27;20117;-61
2021/04/18 03:02:18;;;;;;;38.33;19.15;;;;;;;;;;5156129;27;20133;-61
2021/04/18 03:04:47;;;;;;;48.10;20.50;;;;;;;;;;5139155;27;20054;-61
2021/04/18 03:07:13;;;;;;;47.90;20.80;;;;;;;;;;5157455;27;20046;-61
2021/04/18 03:09:39;;;;;;;40.90;20.67;;;;;;;;;;5138986;27;20027;-61
2021/04/18 03:12:05;;;;;;;41.92;20.88;;;;;;;;;;5157406;27;20023;-61
2021/04/18 03:14:38;;;;;;;42.42;20.25;;;;;;;;;;5138692;27;20040;-61
2021/04/18 03:17:05;;;;;;;42.28;19.30;;;;;;;;;;5138881;27;20355;-61
2021/04/18 03:19:44;;;;;;;41.50;19.33;;;;;;;;;;5138887;27;20038;-61
2021/04/18 03:22:10;;;;;;;44.20;20.02;;;;;;;;;;5138564;27;20033;-61
2021/04/18 03:24:39;;;;;;;42.75;19.60;;;;;;;;;;5157332;27;20098;-61
2021/04/18 03:27:06;;;;;;;41.47;19.80;;;;;;;;;;5138710;27;20137;-58
2021/04/18 03:29:32;;;;;;;42.13;20.08;;;;;;;;;;5138667;27;20280;-58
2021/04/18 03:31:58;;;;;;;39.42;19.60;;;;;;;;;;5138760;27;20027;-58
2021/04/18 03:34:24;;;;;;;40.55;19.77;;;;;;;;;;5138666;27;20331;-61
2021/04/18 03:36:51;;;;;;;35.88;18.27;;;;;;;;;;5138095;27;20037;-61
2021/04/18 03:39:19;;;;;;;38.80;18.52;;;;;;;;;;5138525;27;20382;-61
2021/04/18 03:41:48;;;;;;;42.10;19.23;;;;;;;;;;5138498;27;20026;-61
2021/04/18 03:44:14;;;;;;;37.30;18.25;;;;;;;;;;5156747;27;20026;-61
2021/04/18 03:46:40;;;;;;;33.38;17.65;;;;;;;;;;5156650;27;20026;-61
2021/04/18 03:49:06;;;;;;;36.70;19.05;;;;;;;;;;5138226;27;20351;-58
2021/04/18 03:51:33;;;;;;;38.13;18.67;;;;;;;;;;5138044;27;20086;-61
2021/04/18 03:54:06;;;;;;;35.40;17.33;;;;;;;;;;5138177;27;20059;-61
2021/04/18 03:56:32;;;;;;;34.92;17.85;;;;;;;;;;5138127;27;20030;-61
2021/04/18 03:58:59;;;;;;;39.08;18.60;;;;;;;;;;5120960;27;20026;-61
2021/04/18 04:01:26;;;;;;;39.67;18.67;;;;;;;;;;5133583;27;20046;-61
2021/04/18 04:03:52;;;;;;;35.35;17.15;;;;;;;;;;5135650;27;20087;-61
2021/04/18 04:06:22;;;;;;;36.13;18.80;;;;;;;;;;5134186;27;20030;-61
2021/04/18 04:08:53;;;;;;;35.42;17.60;;;;;;;;;;5134202;27;20027;-61
2021/04/18 04:11:22;;;;;;;35.58;18.65;;;;;;;;;;5134361;27;20027;-61
2021/04/18 04:13:49;;;;;;;41.20;18.98;;;;;;;;;;5133882;27;20023;-61
2021/04/18 04:16:17;;;;;;;44.33;19.45;;;;;;;;;;5134286;27;20023;-61
2021/04/18 04:18:44;;;;;;;39.35;18.42;;;;;;;;;;5134267;27;20030;-61
2021/04/18 04:21:36;;;;;;;40.67;19.30;;;;;;;;;;5132481;27;20031;-61
2021/04/18 04:24:25;;;;;;;40.55;18.65;;;;;;;;;;5127061;27;20092;-62
2021/04/18 04:26:50;;;;;;;38.17;18.33;;;;;;;;;;5135291;27;20367;-61
2021/04/18 04:29:16;;;;;;;39.20;19.83;;;;;;;;;;5135219;27;20016;-61
2021/04/18 04:31:41;;;;;;;39.78;19.58;;;;;;;;;;5134804;27;20054;-61
2021/04/18 04:34:07;;;;;;;40.15;20.48;;;;;;;;;;5135513;27;20023;-61
2021/04/18 04:36:32;;;;;;;39.95;21.15;;;;;;;;;;5135228;27;20031;-61
2021/04/18 04:38:58;;;;;;;40.67;21.83;;;;;;;;;;5133699;27;20450;-61
2021/04/18 04:41:23;;;;;;;43.03;21.02;;;;;;;;;;5135133;27;20023;-61
2021/04/18 04:43:49;;;;;;;41.92;20.73;;;;;;;;;;5133702;27;20019;-62
2021/04/18 04:46:14;;;;;;;39.90;20.25;;;;;;;;;;5134976;27;20022;-62
2021/04/18 04:48:40;;;;;;;39.60;20.08;;;;;;;;;;5134917;27;20015;-62
2021/04/18 04:51:06;;;;;;;44.90;20.25;;;;;;;;;;5133670;27;20023;-57
2021/04/18 04:53:32;;;;;;;33.75;18.15;;;;;;;;;;5134788;27;20022;-57
2021/04/18 04:55:58;;;;;;;31.08;17.40;;;;;;;;;;5134849;27;20479;-58
2021/04/18 04:58:24;;;;;;;36.70;17.88;;;;;;;;;;5134841;27;20016;-57
2021/04/18 05:00:50;;;;;;;36.85;18.80;;;;;;;;;;5137746;27;20856;-58
2021/04/18 05:03:18;;;;;;;37.55;18.10;;;;;;;;;;5137744;27;20092;-57
2021/04/18 05:05:43;;;;;;;40.05;17.83;;;;;;;;;;5136587;27;20355;-58
2021/04/18 05:08:09;;;;;;;39.97;18.90;;;;;;;;;;5155300;27;20034;-61
2021/04/18 05:10:34;;;;;;;39.00;19.58;;;;;;;;;;5155174;27;20031;-61
2021/04/18 05:12:59;;;;;;;47.15;20.13;;;;;;;;;;5155199;27;20457;-61
2021/04/18 05:15:25;;;;;;;40.25;19.17;;;;;;;;;;5155326;27;20034;-61
2021/04/18 05:17:50;;;;;;;37.53;18.20;;;;;;;;;;5155158;27;20098;-61
2021/04/18 05:20:17;;;;;;;42.13;18.88;;;;;;;;;;5155250;27;20482;-61
2021/04/18 05:22:43;;;;;;;43.60;19.17;;;;;;;;;;5136512;27;20362;-61
2021/04/18 05:25:08;;;;;;;42.17;18.95;;;;;;;;;;5154171;27;20035;-61
2021/04/18 05:27:34;;;;;;;41.08;18.75;;;;;;;;;;5155039;27;20010;-61
2021/04/18 05:29:59;;;;;;;33.13;16.85;;;;;;;;;;5135083;27;20049;-62
2021/04/18 05:32:26;;;;;;;31.63;16.58;;;;;;;;;;5153368;27;20011;-61
2021/04/18 05:34:52;;;;;;;31.52;16.33;;;;;;;;;;5134977;27;20015;-61
2021/04/18 05:37:17;;;;;;;32.40;16.70;;;;;;;;;;5153311;27;20013;-61
2021/04/18 05:39:43;;;;;;;26.75;14.45;;;;;;;;;;5153444;27;20461;-61
2021/04/18 05:42:08;;;;;;;26.75;14.52;;;;;;;;;;5153434;27;20025;-61
2021/04/18 05:44:35;;;;;;;21.20;13.30;;;;;;;;;;5153408;27;20035;-62
2021/04/18 05:47:03;;;;;;;25.33;14.07;;;;;;;;;;5153448;27;20030;-61
2021/04/18 05:49:29;;;;;;;33.47;19.20;;;;;;;;;;5153265;27;20049;-61
2021/04/18 05:51:54;;;;;;;33.60;20.67;;;;;;;;;;5153147;27;20461;-61
2021/04/18 05:54:20;;;;;;;37.78;24.92;;;;;;;;;;5143922;27;20397;-62
2021/04/18 05:56:47;;;;;;;33.17;23.27;;;;;;;;;;5150286;27;20018;-62
2021/04/18 05:59:13;;;;;;;23.90;15.80;;;;;;;;;;5150127;27;20015;-62
2021/04/18 06:01:39;;;;;;;20.33;13.18;;;;;;;;;;5146533;27;20027;-62
2021/04/18 06:04:05;;;;;;;19.60;12.60;;;;;;;;;;5149691;27;20124;-61
2021/04/18 06:06:30;;;;;;;20.45;12.65;;;;;;;;;;5150890;27;20119;-61
2021/04/18 06:08:56;;;;;;;30.50;20.27;;;;;;;;;;5150740;27;20034;-61
2021/04/18 06:11:21;;;;;;;25.33;15.45;;;;;;;;;;5131882;27;20023;-62
2021/04/18 06:13:48;;;;;;;19.55;11.07;;;;;;;;;;5131648;27;20580;-61
2021/04/18 06:16:14;;;;;;;13.90;8.98;;;;;;;;;;5150477;27;20015;-61
2021/04/18 06:18:39;;;;;;;14.30;9.77;;;;;;;;;;5150639;27;20075;-61
2021/04/18 06:21:05;;;;;;;17.67;11.48;;;;;;;;;;5150653;27;20033;-61
2021/04/18 06:23:30;;;;;;;18.05;12.38;;;;;;;;;;5149815;27;20038;-61
2021/04/18 06:25:56;;;;;;;23.15;16.48;;;;;;;;;;5150953;27;20029;-61
2021/04/18 06:28:22;;;;;;;18.13;12.15;;;;;;;;;;5151024;27;20034;-61
2021/04/18 06:30:48;;;;;;;18.67;12.18;;;;;;;;;;5150852;27;20026;-61
2021/04/18 06:33:13;;;;;;;15.52;11.00;;;;;;;;;;5115087;27;20079;-61
2021/04/18 06:35:39;;;;;;;15.90;10.02;;;;;;;;;;5151487;27;20018;-61
2021/04/18 06:38:05;;;;;;;16.08;10.00;;;;;;;;;;5154388;27;20038;-59
2021/04/18 06:40:30;;;;;;;13.25;9.80;;;;;;;;;;5154320;27;20042;-60
2021/04/18 06:42:57;;;;;;;15.88;10.35;;;;;;;;;;5154443;27;20044;-59
2021/04/18 06:45:23;;;;;;;15.02;9.27;;;;;;;;;;5154061;27;20014;-59
2021/04/18 06:47:49;;;;;;;15.45;10.60;;;;;;;;;;5154125;27;20253;-61
2021/04/18 06:50:15;;;;;;;16.90;10.25;;;;;;;;;;5153708;27;20019;-60
2021/04/18 06:52:40;;;;;;;18.02;10.25;;;;;;;;;;5153837;27;20037;-59
2021/04/18 06:55:10;;;;;;;16.08;9.85;;;;;;;;;;5153845;27;20362;-60
2021/04/18 06:57:36;;;;;;;27.77;18.58;;;;;;;;;;5153804;27;20018;-59
2021/04/18 07:00:03;;;;;;;45.92;35.85;;;;;;;;;;5153563;27;20018;-59
2021/04/18 07:02:31;;;;;;;32.40;22.98;;;;;;;;;;5117325;27;20050;-60
2021/04/18 07:05:00;;;;;;;19.05;11.88;;;;;;;;;;5152838;27;20497;-58
2021/04/18 07:07:32;;;;;;;18.20;11.07;;;;;;;;;;5153640;27;20068;-60
2021/04/18 07:09:58;;;;;;;18.65;11.07;;;;;;;;;;5134676;27;20031;-60
2021/04/18 07:12:25;;;;;;;21.95;16.17;;;;;;;;;;5153595;27;20014;-61
2021/04/18 07:14:51;;;;;;;20.17;13.32;;;;;;;;;;5152869;27;20059;-61
2021/04/18 07:17:16;;;;;;;20.42;13.63;;;;;;;;;;5153291;27;20107;-61
2021/04/18 07:19:43;;;;;;;18.75;12.15;;;;;;;;;;5153968;27;20030;-64
2021/04/18 07:22:16;;;;;;;20.13;13.93;;;;;;;;;;5135601;27;20462;-64
2021/04/18 07:24:50;;;;;;;17.10;11.18;;;;;;;;;;5153977;27;20069;-64
2021/04/18 07:27:16;;;;;;;12.05;8.18;;;;;;;;;;5154261;27;20035;-64
2021/04/18 07:29:42;;;;;;;18.58;12.18;;;;;;;;;;5135235;27;20037;-64
2021/04/18 07:32:17;;;;;;;23.27;13.23;;;;;;;;;;5154077;27;20534;-64
2021/04/18 07:34:43;;;;;;;44.53;21.85;;;;;;;;;;5153913;27;20027;-64
2021/04/18 07:37:10;;;;;;;31.90;18.75;;;;;;;;;;5153410;27;20018;-64
2021/04/18 07:40:02;;;;;;;20.95;12.98;;;;;;;;;;5153822;27;20030;-64
2021/04/18 07:42:38;;;;;;;17.83;11.77;;;;;;;;;;5131550;27;20042;-64
2021/04/18 07:45:15;;;;;;;11.13;7.43;;;;;;;;;;5152854;27;20019;-64
2021/04/18 07:47:44;;;;;;;9.18;6.93;;;;;;;;;;5132739;27;20027;-64
2021/04/18 07:50:11;;;;;;;9.10;7.03;;;;;;;;;;5152939;27;20023;-64
2021/04/18 07:52:40;;;;;;;8.68;6.75;;;;;;;;;;5153381;27;20049;-64
2021/04/18 07:55:06;;;;;;;10.15;7.70;;;;;;;;;;5151838;27;20026;-64
2021/04/18 07:57:31;;;;;;;14.82;9.30;;;;;;;;;;5150990;27;20409;-64
2021/04/18 07:59:57;;;;;;;16.15;10.30;;;;;;;;;;5150965;27;20022;-64
2021/04/18 08:02:24;;;;;;;20.60;15.43;;;;;;;;;;5151129;27;20142;-58
2021/04/18 08:04:53;;;;;;;16.52;12.27;;;;;;;;;;5151013;27;20083;-58
2021/04/18 08:07:23;;;;;;;25.10;17.92;;;;;;;;;;5151350;27;20037;-58
2021/04/18 08:10:09;;;;;;;19.27;14.15;;;;;;;;;;5151552;27;20027;-58
2021/04/18 08:12:35;;;;;;;17.27;12.48;;;;;;;;;;5150955;27;20023;-58
2021/04/18 08:15:13;;;;;;;22.45;15.20;;;;;;;;;;5132120;27;20117;-58
2021/04/18 08:18:17;;;;;;;13.45;9.13;;;;;;;;;;5132429;27;20034;-58
2021/04/18 08:20:44;;;;;;;14.80;10.15;;;;;;;;;;5066329;28;20032;-58
2021/04/18 08:23:16;;;;;;;14.45;10.88;;;;;;;;;;5066263;28;20089;-58
2021/04/18 08:25:58;;;;;;;12.13;9.85;;;;;;;;;;5109471;27;20493;-58
2021/04/18 08:28:24;;;;;;;14.98;10.75;;;;;;;;;;5151043;27;20041;-58
2021/04/18 08:31:07;;;;;;;13.00;8.63;;;;;;;;;;5131939;27;20026;-58
2021/04/18 08:33:38;;;;;;;9.98;6.78;;;;;;;;;;5150575;27;20027;-58
2021/04/18 08:36:14;;;;;;;8.73;6.32;;;;;;;;;;5150733;27;20030;-58
2021/04/18 08:38:40;;;;;;;10.40;8.00;;;;;;;;;;5150907;27;20034;-58
2021/04/18 08:41:06;;;;;;;5.47;4.85;;;;;;;;;;5150781;27;20027;-58
2021/04/18 08:43:32;;;;;;;6.30;5.15;;;;;;;;;;5150494;27;20042;-58
2021/04/18 08:45:58;;;;;;;6.97;5.78;;;;;;;;;;5150601;27;20022;-58
2021/04/18 08:48:23;;;;;;;7.65;6.30;;;;;;;;;;5150590;27;20493;-58
2021/04/18 08:50:56;;;;;;;8.63;6.20;;;;;;;;;;5150257;27;20023;-59
2021/04/18 08:53:25;;;;;;;16.65;10.45;;;;;;;;;;5133157;27;20034;-59
2021/04/18 08:55:51;;;;;;;13.40;10.27;;;;;;;;;;5133720;27;20007;-58
2021/04/18 08:58:35;;;;;;;11.10;8.63;;;;;;;;;;5152226;27;20038;-59
2021/04/18 09:01:22;;;;;;;15.32;9.73;;;;;;;;;;5129609;27;20053;-59
2021/04/18 09:03:59;;;;;;;10.88;8.60;;;;;;;;;;5131420;27;20402;-59
2021/04/18 09:06:35;;;;;;;7.95;6.38;;;;;;;;;;5131143;27;20027;-60
2021/04/18 09:09:02;;;;;;;7.10;6.18;;;;;;;;;;5131456;27;20122;-58
2021/04/18 09:11:28;;;;;;;10.45;7.70;;;;;;;;;;5131397;27;20027;-58
2021/04/18 09:13:59;;;;;;;7.72;6.22;;;;;;;;;;5131412;27;20027;-59
2021/04/18 09:16:26;;;;;;;11.88;7.60;;;;;;;;;;5131381;27;20135;-58
2021/04/18 09:18:52;;;;;;;8.43;6.45;;;;;;;;;;5131241;27;20110;-59
2021/04/18 09:21:19;;;;;;;8.63;6.70;;;;;;;;;;5130941;27;20027;-63
2021/04/18 09:23:54;;;;;;;9.48;7.57;;;;;;;;;;5130680;27;20050;-63
2021/04/18 09:26:20;;;;;;;8.52;6.35;;;;;;;;;;5130706;27;20477;-63
2021/04/18 09:29:05;;;;;;;8.00;6.32;;;;;;;;;;5129085;27;20026;-63
2021/04/18 09:31:30;;;;;;;7.35;5.95;;;;;;;;;;5130645;27;20076;-63
2021/04/18 09:34:03;;;;;;;8.45;6.97;;;;;;;;;;5130897;27;20019;-63
2021/04/18 09:36:29;;;;;;;8.48;7.07;;;;;;;;;;5130702;28;20027;-63
2021/04/18 09:38:57;;;;;;;7.60;5.72;;;;;;;;;;5129720;28;20038;-57
2021/04/18 09:41:23;;;;;;;8.70;5.85;;;;;;;;;;5131804;28;20031;-57
2021/04/18 09:43:59;;;;;;;7.25;6.07;;;;;;;;;;5133039;28;20019;-57
2021/04/18 09:46:26;;;;;;;6.30;5.68;;;;;;;;;;5134048;28;20034;-57
2021/04/18 09:49:01;;;;;;;7.90;5.80;;;;;;;;;;5133050;28;20023;-57
2021/04/18 09:51:27;;;;;;;6.70;5.88;;;;;;;;;;5132752;28;20478;-57
2021/04/18 09:53:59;;;;;;;15.80;11.50;;;;;;;;;;5133555;27;20026;-57
2021/04/18 09:56:25;;;;;;;9.18;7.78;;;;;;;;;;5133235;27;20020;-58
2021/04/18 09:58:50;;;;;;;13.75;10.10;;;;;;;;;;5131916;27;20083;-57
2021/04/18 10:01:27;;;;;;;22.77;14.52;;;;;;;;;;5139270;27;20051;-57
2021/04/18 10:03:53;;;;;;;22.17;16.83;;;;;;;;;;5154196;27;20065;-58
2021/04/18 10:06:19;;;;;;;9.40;7.53;;;;;;;;;;5154293;27;20027;-57
2021/04/18 10:08:52;;;;;;;9.10;7.70;;;;;;;;;;5153977;27;20019;-57
2021/04/18 10:11:18;;;;;;;11.90;8.07;;;;;;;;;;5156028;27;20076;-57
2021/04/18 10:13:55;;;;;;;8.55;7.18;;;;;;;;;;5158308;27;20423;-58
2021/04/18 10:16:21;;;;;;;8.43;7.35;;;;;;;;;;5158035;27;20037;-58
2021/04/18 10:19:06;;;;;;;10.23;7.70;;;;;;;;;;5158036;27;20015;-57
2021/04/18 10:21:32;;;;;;;8.63;6.60;;;;;;;;;;5158046;27;20068;-63
2021/04/18 10:23:57;;;;;;;12.93;11.13;;;;;;;;;;5158018;27;20061;-62
2021/04/18 10:26:23;;;;;;;13.50;10.65;;;;;;;;;;5157896;27;20018;-63
2021/04/18 10:28:50;;;;;;;9.07;7.05;;;;;;;;;;5157853;27;20014;-63
2021/04/18 10:31:16;;;;;;;8.35;6.57;;;;;;;;;;5138947;27;20389;-63
2021/04/18 10:33:42;;;;;;;9.55;8.55;;;;;;;;;;5157705;27;20026;-63
2021/04/18 10:36:08;;;;;;;12.00;7.22;;;;;;;;;;5157804;27;20019;-63
2021/04/18 10:38:33;;;;;;;6.97;5.88;;;;;;;;;;5139144;27;20105;-63
2021/04/18 10:40:59;;;;;;;9.65;6.97;;;;;;;;;;5157527;27;20031;-63
2021/04/18 10:43:24;;;;;;;7.45;6.75;;;;;;;;;;5157480;27;20022;-63
2021/04/18 10:45:52;;;;;;;23.67;16.67;;;;;;;;;;5157457;27;20023;-63
2021/04/18 10:48:18;;;;;;;30.23;19.65;;;;;;;;;;5138857;27;20029;-63
2021/04/18 10:50:44;;;;;;;11.82;9.25;;;;;;;;;;5157264;27;20027;-63
2021/04/18 10:53:09;;;;;;;33.42;19.05;;;;;;;;;;5157387;27;20478;-63
2021/04/18 10:55:35;;;;;;;10.85;8.25;;;;;;;;;;5156831;27;20027;-63
2021/04/18 10:58:00;;;;;;;7.43;6.35;;;;;;;;;;5157361;27;20026;-63
2021/04/18 11:00:27;;;;;;;9.95;7.63;;;;;;;;;;5157260;27;20027;-63
2021/04/18 11:02:53;;;;;;;9.82;7.55;;;;;;;;;;5157053;27;20046;-63
2021/04/18 11:05:19;;;;;;;11.60;8.30;;;;;;;;;;5138746;27;20385;-63
2021/04/18 11:07:45;;;;;;;40.00;26.48;;;;;;;;;;5138545;27;20022;-63
2021/04/18 11:10:10;;;;;;;52.67;31.67;;;;;;;;;;5157017;27;20039;-63
2021/04/18 11:12:37;;;;;;;46.30;26.30;;;;;;;;;;5157056;27;20014;-63
2021/04/18 11:15:03;;;;;;;21.77;12.15;;;;;;;;;;5156818;27;20030;-63
2021/04/18 11:17:28;;;;;;;46.65;26.35;;;;;;;;;;5157064;27;20105;-63
2021/04/18 11:19:54;;;;;;;15.15;10.82;;;;;;;;;;5156910;27;20031;-63
2021/04/18 11:22:19;;;;;;;19.27;13.25;;;;;;;;;;5155746;27;20423;-63
2021/04/18 11:24:45;;;;;;;55.97;30.75;;;;;;;;;;5156694;27;20054;-63
2021/04/18 11:27:10;;;;;;;14.55;9.98;;;;;;;;;;5156650;27;20083;-63
2021/04/18 11:29:37;;;;;;;24.42;19.95;;;;;;;;;;5156479;27;20496;-63
2021/04/18 11:32:02;;;;;;;198.38;127.68;;;;;;;;;;5156632;27;20014;-63
2021/04/18 11:34:28;;;;;;;39.20;24.02;;;;;;;;;;5156762;27;20397;-63
2021/04/18 11:36:53;;;;;;;33.88;22.40;;;;;;;;;;5156665;27;20015;-62
2021/04/18 11:39:19;;;;;;;86.93;56.97;;;;;;;;;;5156530;27;20027;-63
2021/04/18 11:41:44;;;;;;;51.97;36.10;;;;;;;;;;5156313;27;20351;-63
2021/04/18 11:44:15;;;;;;;29.48;20.63;;;;;;;;;;5156383;27;20023;-63
2021/04/18 11:46:41;;;;;;;50.95;36.72;;;;;;;;;;5156339;27;20026;-63
2021/04/18 11:49:06;;;;;;;43.90;29.13;;;;;;;;;;5156025;27;20378;-63
2021/04/18 11:51:32;;;;;;;24.15;17.85;;;;;;;;;;5156124;27;20027;-63
2021/04/18 11:53:58;;;;;;;23.80;15.07;;;;;;;;;;5156223;27;20513;-63
2021/04/18 11:56:23;;;;;;;13.55;9.57;;;;;;;;;;5137800;27;20036;-63
2021/04/18 11:58:49;;;;;;;26.63;17.55;;;;;;;;;;5156163;27;20026;-63
2021/04/18 12:01:14;;;;;;;21.38;15.38;;;;;;;;;;5155534;27;20058;-62
2021/04/18 12:03:40;;;;;;;18.52;13.05;;;;;;;;;;5156285;27;20041;-63
2021/04/18 12:06:05;;;;;;;29.50;21.67;;;;;;;;;;5155845;27;20022;-63
2021/04/18 12:08:31;;;;;;;15.32;13.07;;;;;;;;;;5155935;27;20517;-63
2021/04/18 12:10:56;;;;;;;18.42;13.80;;;;;;;;;;5155735;27;20058;-63
2021/04/18 12:13:22;;;;;;;16.92;11.07;;;;;;;;;;5155758;27;20022;-63
2021/04/18 12:15:47;;;;;;;15.52;12.27;;;;;;;;;;5155740;27;20015;-63
2021/04/18 12:18:13;;;;;;;19.75;15.38;;;;;;;;;;5155693;27;20423;-63
2021/04/18 12:20:38;;;;;;;18.40;14.02;;;;;;;;;;5155654;27;20037;-62
2021/04/18 12:23:04;;;;;;;15.90;12.50;;;;;;;;;;5155525;27;20418;-63
2021/04/18 12:25:29;;;;;;;29.55;20.50;;;;;;;;;;5155553;27;20393;-63
2021/04/18 12:27:55;;;;;;;22.30;16.35;;;;;;;;;;5155479;27;20403;-63
2021/04/18 12:30:20;;;;;;;25.77;18.27;;;;;;;;;;5155072;27;20038;-62
2021/04/18 12:32:47;;;;;;;12.35;9.57;;;;;;;;;;5137076;27;20034;-63
2021/04/18 12:35:13;;;;;;;23.25;17.98;;;;;;;;;;5154970;27;20030;-63
2021/04/18 12:37:38;;;;;;;13.80;9.70;;;;;;;;;;5136856;27;20018;-63
2021/04/18 12:40:04;;;;;;;27.10;19.17;;;;;;;;;;5155330;27;20022;-63
2021/04/18 12:42:29;;;;;;;16.92;12.00;;;;;;;;;;5136461;27;20386;-63
2021/04/18 12:44:55;;;;;;;27.15;16.17;;;;;;;;;;5155251;27;20029;-63
2021/04/18 12:47:21;;;;;;;42.88;22.02;;;;;;;;;;5155163;27;20389;-62
2021/04/18 12:49:46;;;;;;;15.45;9.95;;;;;;;;;;5154963;27;20431;-63
2021/04/18 12:52:13;;;;;;;22.30;13.60;;;;;;;;;;5155088;27;20094;-63
2021/04/18 12:54:39;;;;;;;25.58;14.85;;;;;;;;;;5155062;27;20453;-63
2021/04/18 12:57:05;;;;;;;22.33;10.57;;;;;;;;;;5154994;27;20057;-63
2021/04/18 12:59:31;;;;;;;19.60;11.73;;;;;;;;;;5155042;27;20091;-63
2021/04/18 13:01:58;;;;;;;13.80;10.63;;;;;;;;;;5154258;27;20034;-63
2021/04/18 13:04:24;;;;;;;19.65;10.88;;;;;;;;;;5154760;27;20405;-63
2021/04/18 13:06:54;;;;;;;20.75;11.85;;;;;;;;;;5154734;27;20479;-63
2021/04/18 13:09:20;;;;;;;20.30;13.98;;;;;;;;;;5154697;27;20023;-62
2021/04/18 13:11:46;;;;;;;20.63;14.18;;;;;;;;;;5154842;27;20025;-62
2021/04/18 13:14:11;;;;;;;35.40;19.50;;;;;;;;;;5154787;27;20151;-62
2021/04/18 13:16:37;;;;;;;29.33;17.92;;;;;;;;;;5154656;27;20089;-63
2021/04/18 13:19:03;;;;;;;53.22;27.08;;;;;;;;;;5154394;27;20023;-63
2021/04/18 13:21:28;;;;;;;16.95;11.90;;;;;;;;;;5154733;27;20026;-63
2021/04/18 13:23:55;;;;;;;17.17;11.27;;;;;;;;;;5136156;27;20038;-62
2021/04/18 13:26:25;;;;;;;29.05;18.02;;;;;;;;;;5154654;27;20036;-62
2021/04/18 13:28:51;;;;;;;50.20;30.30;;;;;;;;;;5154484;27;20387;-62
2021/04/18 13:31:18;;;;;;;32.33;19.60;;;;;;;;;;5154281;27;20019;-63
2021/04/18 13:33:43;;;;;;;116.88;72.20;;;;;;;;;;5136033;27;20023;-63
2021/04/18 13:36:10;;;;;;;60.38;48.63;;;;;;;;;;5154482;27;20362;-63
2021/04/18 13:38:35;;;;;;;40.78;23.17;;;;;;;;;;5154458;27;20545;-62
2021/04/18 13:41:03;;;;;;;39.45;24.48;;;;;;;;;;5154394;27;20065;-62
2021/04/18 13:43:29;;;;;;;65.65;37.38;;;;;;;;;;5154478;27;20026;-62
2021/04/18 13:45:55;;;;;;;15.90;10.55;;;;;;;;;;5155499;27;20493;-63
2021/04/18 13:48:20;;;;;;;38.28;25.38;;;;;;;;;;5140040;27;20068;-62
2021/04/18 13:50:48;;;;;;;23.63;15.50;;;;;;;;;;5158984;27;20450;-63
2021/04/18 13:53:15;;;;;;;38.42;21.70;;;;;;;;;;5158906;27;20023;-63
2021/04/18 13:55:41;;;;;;;22.50;14.07;;;;;;;;;;5159168;27;20027;-63
2021/04/18 13:58:07;;;;;;;15.10;10.05;;;;;;;;;;5159014;27;20019;-62
2021/04/18 14:00:33;;;;;;;14.38;10.93;;;;;;;;;;5158749;27;20018;-62
2021/04/18 14:02:59;;;;;;;30.42;19.40;;;;;;;;;;5158691;27;20114;-62
2021/04/18 14:05:25;;;;;;;25.17;15.52;;;;;;;;;;5158741;27;20454;-61
2021/04/18 14:07:51;;;;;;;23.63;15.52;;;;;;;;;;5158501;27;20053;-58
2021/04/18 14:10:17;;;;;;;38.83;19.05;;;;;;;;;;5150600;27;20065;-58
2021/04/18 14:12:42;;;;;;;15.55;11.18;;;;;;;;;;5155820;27;20050;-58
2021/04/18 14:15:09;;;;;;;19.48;14.00;;;;;;;;;;5155050;27;20022;-61
2021/04/18 14:17:35;;;;;;;33.58;20.70;;;;;;;;;;5150435;27;20026;-61
2021/04/18 14:20:00;;;;;;;28.83;17.98;;;;;;;;;;5135990;27;20022;-61
2021/04/18 14:22:26;;;;;;;43.33;29.42;;;;;;;;;;5154835;27;20557;-61